Bei Facebook empfehlenBei Twitter postenGoogle plusPinterest

Das Wetter im Erzgebirge am 04.02.2017

Wetter und Klima am 04.02.2017 Holzhau im Erzgebirge (630m ü.NN)
Letzte gemessene Temperatur und Uhrzeit der Messung23:45:00 Uhr0.90 °C
Temperatur (Maximum / Höchstwert) und Uhrzeit der Messung13:15:00 Uhr9.60 °C
Temperatur (Minimum / Tiefstwert) und Uhrzeit der Messung07:45:00-0.40 °C
Errechneter Absolutwert der Temperaturschwankungen zwischen Tmin und Tmax des Tages10.00 K
Errechnete Tagesmitteltemperatur2.92917 °C
Gesamt - Niederschlag des Tages (in flüssiger Form)0.52 Liter / m²
Luftdruck (Maximum / Höchstwert) und Zeitpunkt der Messung01:15:00 Uhr1003.50 hPa
Luftdruck (Minimum / Tiefstwert) und Zeitpunkt der Messung21:15:00 Uhr999.00 hPa
Errechneter Absolutwert der Luftdruckschwankungen des Tages4.50 hPa
Höchste gemessene Windgeschwindigkeit und Uhrzeit der Messung22:30:00 Uhr16.56 km/h
Errechnete Windhäufigkeit in Relation zu den Messwerten des Tages30.20833 %
Niedrigste Windkühle (Windchill) und Zeitpunkt der Messung22:30:00 Uhr-3.00 °C
Taupunkt (Maximum / Höchstwert) und Uhrzeit der Messung11:30:00 Uhr5.70 °C
Taupunkt (Minimum / Tiefstwert) und Uhrzeit der Messung17:45:00-2.40 °C
Anzahl der automatisch eingelesenen Messwerte 96

Detaillierte Wetter- und Klima- Messwerte für den 04.02.2017 in Holzhau im Erzgebirge (630m ü.NN)
ZeitTemperaturLuftdruckRel. LuftfeuchteWindWindrichtungWindchillTaupunktNiederschlag l/m²
23:45:000.90 °C999.50 hPa91.00 %-0.40 °C0.52
23:30:001.10 °C999.40 hPa91.00 %-0.20 °C0.52
23:15:001.20 °C999.20 hPa92.00 %0.00 °C0.52
23:00:001.10 °C999.70 hPa91.00 %-0.20 °C0.52
22:45:001.10 °C999.60 hPa91.00 %1.80 km/hOSO1.10 °C-0.20 °C0.52
22:30:001.40 °C999.50 hPa91.00 %16.56 km/hO-3.00 °C0.10 °C0.52
22:15:001.80 °C999.40 hPa90.00 %2.52 km/hOSO1.80 °C0.30 °C0.52
22:00:001.90 °C999.30 hPa90.00 %10.44 km/hS-1.20 °C0.40 °C0.52
21:45:002.10 °C999.30 hPa90.00 %1.08 km/hNNO2.10 °C0.60 °C0.52
21:30:002.10 °C999.30 hPa91.00 %12.24 km/hO-1.30 °C0.80 °C0.52
21:15:001.90 °C999.00 hPa91.00 %5.40 km/hSO0.40 °C0.60 °C0.52
21:00:001.60 °C999.20 hPa90.00 %0.10 °C0.52
20:45:001.70 °C999.30 hPa90.00 %2.16 km/hNNO1.70 °C0.20 °C0.52
20:30:001.80 °C999.40 hPa90.00 %0.30 °C0.52
20:15:001.80 °C999.50 hPa91.00 %0.50 °C0.52
20:00:001.80 °C999.80 hPa91.00 %6.12 km/hSO0.00 °C0.50 °C0.52
19:45:001.60 °C999.80 hPa90.00 %0.10 °C0.52
19:30:001.40 °C999.70 hPa90.00 %-0.10 °C0.52
19:15:001.30 °C999.70 hPa90.00 %-0.20 °C0.52
19:00:001.00 °C999.90 hPa89.00 %-0.60 °C0.52
18:45:000.90 °C999.90 hPa89.00 %-0.70 °C0.52
18:30:000.80 °C1000.10 hPa89.00 %-0.80 °C0.52
18:15:000.40 °C999.90 hPa89.00 %-1.20 °C0.52
18:00:000.10 °C999.90 hPa88.00 %3.96 km/hOSO0.10 °C-1.60 °C0.52
17:45:00-0.10 °C1000.10 hPa86.00 %-2.40 °C0.52
17:30:000.10 °C1000.10 hPa85.00 %-2.10 °C0.52
17:15:000.60 °C1000.30 hPa82.00 %-2.10 °C0.52
17:00:001.40 °C1000.20 hPa80.00 %-1.70 °C0.52
16:45:002.40 °C1000.00 hPa79.00 %-0.90 °C0.52
16:30:003.50 °C999.90 hPa76.00 %-0.30 °C0.52
16:15:004.80 °C1000.00 hPa73.00 %0.40 °C0.52
16:00:006.20 °C999.80 hPa70.00 %1.10 °C0.52
15:45:007.40 °C1000.00 hPa68.00 %1.90 °C0.52
15:30:007.60 °C1000.10 hPa67.00 %1.90 °C0.52
15:15:008.20 °C1000.30 hPa66.00 %1.08 km/hSO8.20 °C2.20 °C0.52
15:00:008.90 °C1000.30 hPa65.00 %1.08 km/hOSO8.90 °C2.70 °C0.52
14:45:008.80 °C1000.10 hPa65.00 %2.60 °C0.52
14:30:008.90 °C1000.50 hPa64.00 %2.50 °C0.52
14:15:009.20 °C1000.70 hPa64.00 %2.80 °C0.52
14:00:009.30 °C1000.70 hPa64.00 %1.08 km/hSSO9.30 °C2.90 °C0.52
13:45:009.30 °C1000.80 hPa65.00 %0.72 km/hSW9.30 °C3.10 °C0.52
13:30:009.30 °C1001.00 hPa63.00 %1.80 km/hOSO9.30 °C2.60 °C0.52
13:15:009.60 °C1001.00 hPa65.00 %2.52 km/hSSO9.60 °C3.40 °C0.52
13:00:009.60 °C1001.10 hPa69.00 %1.80 km/hSSO9.60 °C4.20 °C0.52
12:45:009.40 °C1001.40 hPa71.00 %4.40 °C0.52
12:30:009.00 °C1001.60 hPa71.00 %4.00 °C0.52
12:15:008.70 °C1001.60 hPa77.00 %2.16 km/hSO8.70 °C4.90 °C0.52
12:00:008.70 °C1001.70 hPa80.00 %5.40 °C0.52
11:45:008.30 °C1001.80 hPa81.00 %5.20 °C0.52
11:30:007.90 °C1002.10 hPa86.00 %5.70 °C0.52
11:15:006.90 °C1002.10 hPa86.00 %3.24 km/hSO6.90 °C4.70 °C0.52
11:00:006.20 °C1002.10 hPa88.00 %4.40 °C0.52
10:45:005.60 °C1002.40 hPa92.00 %4.40 °C0.52
10:30:004.90 °C1002.30 hPa94.00 %4.00 °C0.52
10:15:004.10 °C1002.20 hPa95.00 %0.72 km/hSO4.10 °C3.40 °C0.52
10:00:003.10 °C1002.30 hPa96.00 %2.52 km/hSO3.10 °C2.50 °C0.52
09:45:002.60 °C1002.40 hPa96.00 %2.00 °C0.52
09:30:001.90 °C1002.50 hPa95.00 %1.20 °C0.52
09:15:001.40 °C1002.70 hPa95.00 %2.52 km/hO1.40 °C0.70 °C0.52
09:00:000.60 °C1002.60 hPa95.00 %-0.10 °C0.52
08:45:000.30 °C1002.70 hPa95.00 %1.44 km/hSO0.30 °C-0.40 °C0.52
08:30:000.10 °C1002.80 hPa95.00 %1.08 km/hO0.10 °C-0.60 °C0.52
08:15:00-0.10 °C1002.60 hPa95.00 %1.44 km/hOSO-0.10 °C-0.90 °C0.52
08:00:00-0.20 °C1002.70 hPa94.00 %-1.10 °C0.52
07:45:00-0.40 °C1003.10 hPa94.00 %-1.30 °C0.52
07:30:00-0.10 °C1003.10 hPa94.00 %-1.00 °C0.52
07:15:00-0.10 °C1003.20 hPa94.00 %-1.00 °C0.52
07:00:000.10 °C1003.30 hPa94.00 %-0.70 °C0.52
06:45:000.20 °C1003.10 hPa94.00 %-0.60 °C0.52
06:30:000.50 °C1003.00 hPa94.00 %-0.40 °C0.52
06:15:000.70 °C1003.10 hPa94.00 %-0.20 °C0.52
06:00:000.80 °C1003.00 hPa95.00 %0.10 °C0.52
05:45:000.90 °C1003.00 hPa95.00 %0.20 °C0.52
05:30:001.10 °C1002.80 hPa95.00 %0.40 °C0.52
05:15:001.10 °C1002.80 hPa95.00 %0.40 °C0.52
05:00:001.20 °C1002.60 hPa95.00 %0.50 °C0.52
04:45:001.00 °C1002.70 hPa94.00 %4.68 km/hOSO1.00 °C0.10 °C0.52
04:30:000.80 °C1002.60 hPa94.00 %1.08 km/hOSO0.80 °C-0.10 °C0.52
04:15:001.10 °C1002.50 hPa94.00 %0.20 °C0.52
04:00:001.10 °C1002.50 hPa94.00 %0.20 °C0.52
03:45:001.10 °C1002.60 hPa94.00 %0.20 °C0.52
03:30:001.20 °C1002.60 hPa94.00 %0.30 °C0.52
03:15:001.30 °C1002.70 hPa94.00 %0.40 °C0.52
03:00:001.50 °C1002.60 hPa94.00 %0.60 °C0.52
02:45:001.80 °C1002.70 hPa94.00 %1.44 km/hOSO1.80 °C0.90 °C0.52
02:30:001.60 °C1002.80 hPa94.00 %0.70 °C0.52
02:15:001.50 °C1002.90 hPa94.00 %0.60 °C0.52
02:00:001.30 °C1003.10 hPa94.00 %0.40 °C0.52
01:45:001.40 °C1003.00 hPa94.00 %0.50 °C0.52
01:30:001.60 °C1003.30 hPa94.00 %0.70 °C0.52
01:15:001.60 °C1003.50 hPa94.00 %0.70 °C0.52
01:00:001.50 °C1003.10 hPa94.00 %0.60 °C 
00:45:001.40 °C1003.20 hPa94.00 %0.50 °C 
00:30:001.60 °C1003.30 hPa94.00 %0.70 °C 
00:15:001.70 °C1003.30 hPa94.00 %0.80 °C 
00:00:001.90 °C1003.20 hPa94.00 %3.24 km/hOSO1.90 °C1.00 °C 

Permanenter Link zu dieser Seite: Wetter im Erzgebirge am 04.02.2017
Performance-Info: Die Erstellung der Seite / Statistik(en) / Tabelle(n) erforderte 5 Datenbankserver-Abfrage(n) und dauerte 96 Millisekunden. (Dieser Messwert ist von der Gesamt-Auslastung des Servers abhängig.)
Erzgebirge - Wetter | Erzgebirge - Wetter (Mobilgeräte) | Komplette Klimadatenbank